Main page
METAR-TAF:

METAR-TAF

Airports :

Adolfo Suárez Madrid–Barajas Airport

Madrid, Spain

latitude: 40-27N, longitude: 003-33W, elevation: 609 m

Current weather observation

The report was made 15 minutes ago, at 06:30 UTC
Wind 7 kt from the North, varying between North/Northwest and Northeast
Temperature 17°C
Humidity 63%
Pressure 1021 hPa
Visibility 10 km or more
Scattered clouds at a height of 3800 ft

METAR: LEMD 180630Z 01007KT 340V040 9999 SCT038 17/10 Q1021 NOSIG

Time: 08:45 (06:45 UTC)

Forecast

The report was made 1 hour and 45 minutes ago, at 05:00 UTC
Forecast valid from 18 at 06 UTC to 19 at 12 UTC
Wind 7 kt from the North/Northeast
Visibility 10 km or more
no clouds below 1500 m and no cumulonimbus

TAF: LEMD 180500Z 1806/1912 03007KT CAVOK TX32/1815Z TN16/1806Z

Weather observations and forecasts of more than 4000 airports (METAR and TAF reports).

The available stations are represented by yellow and red dots on the map.

Hover mouse over dot to see the name of the station.

Then click to see weather observations and forecasts.

To change the map : click on the green buttons with a black cross to zoom in, on the green button with a dash to zoom out, or on the green arrows for adjacent maps.


METAR-TAF: